Time;durP1;ratioP1;P1;durP2;ratioP2;P2;SDS_P1;SDS_P2;PMS_P1;PMS_P2;Temp;Humidity;BMP_temperature;BMP_pressure;BME280_temperature;BME280_humidity;BME280_pressure;Samples;Min_cycle;Max_cycle;Signal;HPM_P1;HPM_P2
2022/03/22 00:02:18;;;;;;;22.50;14.33;;;;;;;;;;5013520;28;20942;-47
2022/03/22 00:04:44;;;;;;;21.03;13.47;;;;;;;;;;5014096;28;20407;-47
2022/03/22 00:07:10;;;;;;;22.27;15.40;;;;;;;;;;5013646;28;20926;-47
2022/03/22 00:09:36;;;;;;;23.20;14.37;;;;;;;;;;5013889;28;20782;-48
2022/03/22 00:12:03;;;;;;;26.80;14.80;;;;;;;;;;5012661;28;20442;-49
2022/03/22 00:14:29;;;;;;;19.73;14.27;;;;;;;;;;5013657;28;20406;-48
2022/03/22 00:16:55;;;;;;;22.43;14.80;;;;;;;;;;5013360;28;20546;-47
2022/03/22 00:19:21;;;;;;;21.50;13.27;;;;;;;;;;5013457;28;20767;-46
2022/03/22 00:21:47;;;;;;;20.83;13.60;;;;;;;;;;5013551;28;20466;-48
2022/03/22 00:24:14;;;;;;;19.83;13.67;;;;;;;;;;5013996;28;20795;-47
2022/03/22 00:26:40;;;;;;;20.80;14.57;;;;;;;;;;5013689;28;20405;-47
2022/03/22 00:29:06;;;;;;;20.27;14.70;;;;;;;;;;5013370;28;20400;-49
2022/03/22 00:31:32;;;;;;;20.17;14.43;;;;;;;;;;5013109;28;20510;-47
2022/03/22 00:33:58;;;;;;;21.70;14.13;;;;;;;;;;5013257;28;20497;-47
2022/03/22 00:36:24;;;;;;;22.93;13.80;;;;;;;;;;5013431;28;20892;-47
2022/03/22 00:38:50;;;;;;;22.40;13.37;;;;;;;;;;5012661;28;20408;-48
2022/03/22 00:41:17;;;;;;;22.00;13.70;;;;;;;;;;5012754;28;20545;-47
2022/03/22 00:43:47;;;;;;;30.30;14.03;;;;;;;;;;5013264;28;20407;-52
2022/03/22 00:46:13;;;;;;;17.43;12.67;;;;;;;;;;5013132;28;20403;-46
2022/03/22 00:48:40;;;;;;;25.47;14.87;;;;;;;;;;5013145;28;20403;-47
2022/03/22 00:51:06;;;;;;;20.30;14.70;;;;;;;;;;5012732;28;20410;-47
2022/03/22 00:53:32;;;;;;;24.20;14.53;;;;;;;;;;5013184;28;21045;-48
2022/03/22 00:56:01;;;;;;;20.70;14.10;;;;;;;;;;5013089;28;20419;-47
2022/03/22 00:58:27;;;;;;;19.40;13.20;;;;;;;;;;5012969;28;20419;-47
2022/03/22 01:00:52;;;;;;;20.33;13.83;;;;;;;;;;5012958;28;20463;-49
2022/03/22 01:03:24;;;;;;;20.57;13.73;;;;;;;;;;5012826;28;20549;-50
2022/03/22 01:05:52;;;;;;;19.27;13.00;;;;;;;;;;5012862;28;20399;-46
2022/03/22 01:08:18;;;;;;;19.10;14.03;;;;;;;;;;5012809;28;20772;-46
2022/03/22 01:10:52;;;;;;;20.50;14.20;;;;;;;;;;5012449;28;20923;-47
2022/03/22 01:13:18;;;;;;;21.73;14.03;;;;;;;;;;5012991;28;20910;-48
2022/03/22 01:15:44;;;;;;;20.67;14.43;;;;;;;;;;5012683;28;20413;-49
2022/03/22 01:18:11;;;;;;;18.70;12.83;;;;;;;;;;5012621;28;20412;-48
2022/03/22 01:20:38;;;;;;;20.13;12.97;;;;;;;;;;5012249;28;20550;-47
2022/03/22 01:26:08;;;;;;;24.00;14.10;;;;;;;;;;5007238;28;20483;-50
2022/03/22 01:28:34;;;;;;;19.53;13.47;;;;;;;;;;5011754;28;20489;-50
2022/03/22 01:31:00;;;;;;;20.83;13.33;;;;;;;;;;5012007;28;20411;-50
2022/03/22 01:33:26;;;;;;;21.90;13.17;;;;;;;;;;5012246;28;20406;-51
2022/03/22 01:35:52;;;;;;;21.63;13.57;;;;;;;;;;5012214;28;20410;-51
2022/03/22 01:38:18;;;;;;;18.30;12.90;;;;;;;;;;5012161;28;20778;-50
2022/03/22 01:40:44;;;;;;;17.87;12.70;;;;;;;;;;5011934;28;20454;-51
2022/03/22 01:43:10;;;;;;;24.90;13.80;;;;;;;;;;5011785;28;20502;-50
2022/03/22 01:45:36;;;;;;;17.33;13.23;;;;;;;;;;5012056;28;20408;-50
2022/03/22 01:48:04;;;;;;;20.70;12.93;;;;;;;;;;5012134;28;20418;-51
2022/03/22 01:50:30;;;;;;;17.33;12.47;;;;;;;;;;5011538;28;20499;-51
2022/03/22 01:52:59;;;;;;;19.27;13.67;;;;;;;;;;5011940;28;20513;-51
2022/03/22 01:55:26;;;;;;;19.83;13.20;;;;;;;;;;5012003;28;20414;-51
2022/03/22 01:57:52;;;;;;;20.90;13.27;;;;;;;;;;5011881;28;20480;-51
2022/03/22 02:00:20;;;;;;;18.93;13.13;;;;;;;;;;5011759;28;20462;-51
2022/03/22 02:08:33;;;;;;;28.50;12.83;;;;;;;;;;4978572;28;20442;-48
2022/03/22 02:11:00;;;;;;;18.40;12.40;;;;;;;;;;5011497;28;20447;-49
2022/03/22 02:13:27;;;;;;;21.20;12.40;;;;;;;;;;5011808;28;20407;-49
2022/03/22 02:15:54;;;;;;;16.07;13.10;;;;;;;;;;5011719;28;20395;-50
2022/03/22 02:18:20;;;;;;;17.33;12.53;;;;;;;;;;5011789;28;20408;-49
2022/03/22 02:20:47;;;;;;;18.70;12.40;;;;;;;;;;5011408;28;20488;-49
2022/03/22 02:23:25;;;;;;;18.67;11.30;;;;;;;;;;5011645;28;20423;-48
2022/03/22 02:25:51;;;;;;;20.13;11.93;;;;;;;;;;5011712;28;20410;-48
2022/03/22 02:28:21;;;;;;;13.20;11.23;;;;;;;;;;5011609;28;20411;-49
2022/03/22 02:30:48;;;;;;;21.03;13.40;;;;;;;;;;5011453;28;20399;-48
2022/03/22 02:33:14;;;;;;;17.00;11.63;;;;;;;;;;5011966;28;20434;-49
2022/03/22 02:35:41;;;;;;;15.10;11.53;;;;;;;;;;5011720;28;20407;-48
2022/03/22 02:38:07;;;;;;;18.67;10.97;;;;;;;;;;5011421;28;20427;-50
2022/03/22 02:40:33;;;;;;;18.03;12.23;;;;;;;;;;5011524;28;20815;-48
2022/03/22 02:43:01;;;;;;;15.33;11.10;;;;;;;;;;5011542;28;20437;-49
2022/03/22 02:45:27;;;;;;;18.20;12.80;;;;;;;;;;5011870;28;20400;-49
2022/03/22 02:47:53;;;;;;;15.57;11.50;;;;;;;;;;5011569;28;20411;-49
2022/03/22 02:50:20;;;;;;;21.80;11.63;;;;;;;;;;5011312;28;20415;-49
2022/03/22 02:52:46;;;;;;;14.97;11.63;;;;;;;;;;5011536;28;20481;-50
2022/03/22 02:55:12;;;;;;;18.50;11.63;;;;;;;;;;5011596;28;20447;-49
2022/03/22 02:57:39;;;;;;;17.10;11.20;;;;;;;;;;5011391;28;20412;-49
2022/03/22 03:00:07;;;;;;;17.00;12.00;;;;;;;;;;4993352;28;21024;-49
2022/03/22 03:02:33;;;;;;;16.83;11.67;;;;;;;;;;5011882;28;20419;-49
2022/03/22 03:04:59;;;;;;;19.73;12.80;;;;;;;;;;5014948;28;20774;-48
2022/03/22 03:07:25;;;;;;;15.90;11.20;;;;;;;;;;5014891;28;20411;-51
2022/03/22 03:09:51;;;;;;;13.57;10.90;;;;;;;;;;5014650;28;20403;-49
2022/03/22 03:12:17;;;;;;;15.10;10.53;;;;;;;;;;5014575;28;20419;-49
2022/03/22 03:14:43;;;;;;;16.97;10.67;;;;;;;;;;5014557;28;20391;-49
2022/03/22 03:17:14;;;;;;;18.27;12.33;;;;;;;;;;5014715;28;20396;-50
2022/03/22 03:19:41;;;;;;;18.00;12.00;;;;;;;;;;5014411;28;20388;-49
2022/03/22 03:22:07;;;;;;;13.53;10.00;;;;;;;;;;5014521;28;20415;-48
2022/03/22 03:24:34;;;;;;;16.47;12.43;;;;;;;;;;5014576;28;20392;-49
2022/03/22 03:27:00;;;;;;;23.53;11.23;;;;;;;;;;5014314;28;20491;-49
2022/03/22 03:29:26;;;;;;;16.13;11.93;;;;;;;;;;5014049;28;20483;-48
2022/03/22 03:31:53;;;;;;;16.23;11.10;;;;;;;;;;5014253;28;20427;-50
2022/03/22 03:34:19;;;;;;;19.70;12.17;;;;;;;;;;5014410;28;20400;-49
2022/03/22 03:36:45;;;;;;;15.27;11.90;;;;;;;;;;5014397;28;20808;-49
2022/03/22 03:39:11;;;;;;;14.00;10.87;;;;;;;;;;5014217;28;20403;-48
2022/03/22 03:47:15;;;;;;;18.67;11.73;;;;;;;;;;5014334;28;20403;-50
2022/03/22 03:49:42;;;;;;;17.17;11.23;;;;;;;;;;5013920;28;20399;-50
2022/03/22 03:52:10;;;;;;;19.87;11.83;;;;;;;;;;5013861;28;20415;-50
2022/03/22 03:54:36;;;;;;;15.80;11.40;;;;;;;;;;5013981;28;20399;-49
2022/03/22 03:57:03;;;;;;;17.70;11.83;;;;;;;;;;5013941;28;20399;-50
2022/03/22 03:59:29;;;;;;;17.77;11.60;;;;;;;;;;5013682;28;20395;-51
2022/03/22 04:02:29;;;;;;;19.97;12.17;;;;;;;;;;5013401;28;20512;-51
2022/03/22 04:04:55;;;;;;;13.07;9.97;;;;;;;;;;4993626;28;20777;-50
2022/03/22 04:07:22;;;;;;;16.27;10.47;;;;;;;;;;4994175;28;20446;-50
2022/03/22 04:09:49;;;;;;;13.03;11.50;;;;;;;;;;4993857;28;20389;-49
2022/03/22 04:12:15;;;;;;;16.47;11.43;;;;;;;;;;4994564;28;20412;-50
2022/03/22 04:14:41;;;;;;;15.50;10.57;;;;;;;;;;4993908;28;20422;-47
2022/03/22 04:17:08;;;;;;;19.10;11.33;;;;;;;;;;4993848;28;20396;-47
2022/03/22 04:19:35;;;;;;;14.93;10.33;;;;;;;;;;4993750;28;20478;-47
2022/03/22 04:22:02;;;;;;;17.67;11.83;;;;;;;;;;4993794;28;20456;-47
2022/03/22 04:24:28;;;;;;;18.30;11.37;;;;;;;;;;4993770;28;20412;-48
2022/03/22 04:26:55;;;;;;;16.00;10.70;;;;;;;;;;4993831;28;20436;-47
2022/03/22 04:34:50;;;;;;;15.90;11.17;;;;;;;;;;4993721;28;20403;-47
2022/03/22 04:37:16;;;;;;;16.90;11.07;;;;;;;;;;4993563;28;20404;-47
2022/03/22 04:39:43;;;;;;;20.00;11.83;;;;;;;;;;4993174;28;20403;-47
2022/03/22 04:42:10;;;;;;;16.87;11.40;;;;;;;;;;4993520;28;20779;-47
2022/03/22 04:44:36;;;;;;;16.40;11.60;;;;;;;;;;4993709;28;20415;-47
2022/03/22 04:47:03;;;;;;;14.00;10.83;;;;;;;;;;4993380;28;20459;-47
2022/03/22 04:49:29;;;;;;;15.23;12.10;;;;;;;;;;4993111;28;20478;-47
2022/03/22 04:57:26;;;;;;;13.93;11.00;;;;;;;;;;4993483;28;20922;-47
2022/03/22 04:59:52;;;;;;;13.27;10.93;;;;;;;;;;4992926;28;20409;-50
2022/03/22 05:02:18;;;;;;;17.57;11.33;;;;;;;;;;4992915;28;20428;-51
2022/03/22 05:04:44;;;;;;;13.10;10.50;;;;;;;;;;4993102;28;20462;-47
2022/03/22 05:07:10;;;;;;;13.00;10.23;;;;;;;;;;4993020;28;20400;-47
2022/03/22 05:09:36;;;;;;;18.60;11.60;;;;;;;;;;4992813;28;20775;-47
2022/03/22 05:12:02;;;;;;;24.63;10.83;;;;;;;;;;4992867;28;20515;-47
2022/03/22 05:14:28;;;;;;;16.07;11.37;;;;;;;;;;4992900;28;20487;-47
2022/03/22 05:16:58;;;;;;;15.97;12.10;;;;;;;;;;4992911;28;20944;-46
2022/03/22 05:19:24;;;;;;;19.20;12.17;;;;;;;;;;4992545;28;20447;-47
2022/03/22 05:21:50;;;;;;;17.30;12.90;;;;;;;;;;4992690;28;20459;-47
2022/03/22 05:24:17;;;;;;;15.53;12.60;;;;;;;;;;4992776;28;20404;-47
2022/03/22 05:26:43;;;;;;;19.53;13.17;;;;;;;;;;4992332;28;20408;-47
2022/03/22 05:29:09;;;;;;;19.63;12.30;;;;;;;;;;4992660;28;20479;-47
2022/03/22 05:31:35;;;;;;;22.90;13.07;;;;;;;;;;4992505;28;20519;-47
2022/03/22 05:34:02;;;;;;;19.30;12.93;;;;;;;;;;4992594;28;20415;-47
2022/03/22 05:36:28;;;;;;;17.80;12.57;;;;;;;;;;4992687;28;20534;-49
2022/03/22 05:38:54;;;;;;;18.67;12.37;;;;;;;;;;4992448;28;20490;-46
2022/03/22 05:41:22;;;;;;;23.53;13.67;;;;;;;;;;4991684;28;20455;-47
2022/03/22 05:43:49;;;;;;;18.70;12.30;;;;;;;;;;4992528;28;20495;-47
2022/03/22 05:46:18;;;;;;;16.60;12.60;;;;;;;;;;4992634;28;20406;-46
2022/03/22 05:48:48;;;;;;;16.70;12.13;;;;;;;;;;4992468;28;20393;-47
2022/03/22 05:51:16;;;;;;;16.93;11.97;;;;;;;;;;4991745;28;20459;-47
2022/03/22 05:53:42;;;;;;;23.43;15.00;;;;;;;;;;4991820;28;20460;-46
2022/03/22 05:56:08;;;;;;;23.17;13.97;;;;;;;;;;4991990;28;20476;-47
2022/03/22 05:58:34;;;;;;;21.27;13.47;;;;;;;;;;4991795;28;20500;-47
2022/03/22 06:01:00;;;;;;;17.43;13.80;;;;;;;;;;4991580;28;20454;-48
2022/03/22 06:03:26;;;;;;;21.80;15.30;;;;;;;;;;4991552;28;20435;-48
2022/03/22 06:05:52;;;;;;;19.20;13.17;;;;;;;;;;4992031;28;20407;-48
2022/03/22 06:08:19;;;;;;;22.93;13.23;;;;;;;;;;4991995;28;20430;-48
2022/03/22 06:10:46;;;;;;;20.10;15.20;;;;;;;;;;4991704;28;20457;-47
2022/03/22 06:13:11;;;;;;;20.83;13.33;;;;;;;;;;4991785;28;20926;-47
2022/03/22 06:15:38;;;;;;;21.67;13.90;;;;;;;;;;4991526;28;20418;-47
2022/03/22 06:18:05;;;;;;;20.90;13.40;;;;;;;;;;4992218;28;20835;-47
2022/03/22 06:20:44;;;;;;;27.93;12.70;;;;;;;;;;4992237;28;20486;-47
2022/03/22 06:23:11;;;;;;;21.40;13.20;;;;;;;;;;4992324;28;20499;-47
2022/03/22 06:25:37;;;;;;;25.27;14.50;;;;;;;;;;4992255;28;20404;-47
2022/03/22 06:28:04;;;;;;;20.90;14.20;;;;;;;;;;4992184;28;20873;-47
2022/03/22 06:30:30;;;;;;;22.80;14.30;;;;;;;;;;4991849;28;20415;-47
2022/03/22 06:32:58;;;;;;;21.47;13.23;;;;;;;;;;4992004;28;20427;-47
2022/03/22 06:35:33;;;;;;;25.13;14.63;;;;;;;;;;4992078;28;20864;-47
2022/03/22 06:38:00;;;;;;;23.30;13.60;;;;;;;;;;4993576;28;20400;-47
2022/03/22 06:40:28;;;;;;;20.97;13.70;;;;;;;;;;4995465;28;20955;-48
2022/03/22 06:42:54;;;;;;;21.97;13.73;;;;;;;;;;4995616;28;20916;-47
2022/03/22 06:45:20;;;;;;;19.63;13.17;;;;;;;;;;4995869;28;20845;-47
2022/03/22 06:47:46;;;;;;;18.17;13.20;;;;;;;;;;4995718;28;20441;-47
2022/03/22 06:50:14;;;;;;;20.40;12.77;;;;;;;;;;4995533;28;20918;-48
2022/03/22 06:52:41;;;;;;;21.00;12.40;;;;;;;;;;4995557;28;20514;-47
2022/03/22 06:55:08;;;;;;;22.57;13.47;;;;;;;;;;4995831;28;20417;-48
2022/03/22 06:57:35;;;;;;;18.53;13.10;;;;;;;;;;4995603;28;20408;-47
2022/03/22 07:00:02;;;;;;;18.30;13.67;;;;;;;;;;4995525;28;20409;-48
2022/03/22 07:02:28;;;;;;;24.60;14.60;;;;;;;;;;4995307;28;20419;-48
2022/03/22 07:04:53;;;;;;;20.40;15.87;;;;;;;;;;4995682;28;20385;-48
2022/03/22 07:07:20;;;;;;;20.10;14.00;;;;;;;;;;4995501;28;20870;-48
2022/03/22 07:09:46;;;;;;;21.07;14.97;;;;;;;;;;4995132;28;20766;-48
2022/03/22 07:12:13;;;;;;;23.80;15.90;;;;;;;;;;4995277;28;20420;-48
2022/03/22 07:14:40;;;;;;;18.47;14.30;;;;;;;;;;4995281;28;20393;-49
2022/03/22 07:17:07;;;;;;;19.10;14.63;;;;;;;;;;4995307;28;20406;-48
2022/03/22 07:19:34;;;;;;;21.10;14.80;;;;;;;;;;4995203;28;20396;-50
2022/03/22 07:22:01;;;;;;;22.00;16.10;;;;;;;;;;4995654;28;20460;-48
2022/03/22 07:24:27;;;;;;;19.23;14.30;;;;;;;;;;4995135;28;20996;-49
2022/03/22 07:26:53;;;;;;;19.13;14.50;;;;;;;;;;4995506;28;20412;-49
2022/03/22 07:29:19;;;;;;;21.20;15.47;;;;;;;;;;5017998;28;20481;-48
2022/03/22 07:31:45;;;;;;;18.93;14.37;;;;;;;;;;5014421;28;20434;-48
2022/03/22 07:34:14;;;;;;;21.30;15.00;;;;;;;;;;5014610;28;20400;-48
2022/03/22 07:36:40;;;;;;;17.90;14.90;;;;;;;;;;5014480;28;20414;-48
2022/03/22 07:39:09;;;;;;;20.63;15.53;;;;;;;;;;5014308;28;20914;-47
2022/03/22 07:41:36;;;;;;;19.50;15.30;;;;;;;;;;5014200;28;20454;-48
2022/03/22 07:44:03;;;;;;;21.23;14.40;;;;;;;;;;5014343;28;20772;-50
2022/03/22 07:46:29;;;;;;;17.40;13.73;;;;;;;;;;5014378;28;20906;-51
2022/03/22 07:48:55;;;;;;;26.80;16.83;;;;;;;;;;5013663;28;20765;-50
2022/03/22 07:54:05;;;;;;;18.13;15.10;;;;;;;;;;5014566;28;20403;-50
2022/03/22 07:56:32;;;;;;;24.73;16.13;;;;;;;;;;5013793;28;20406;-51
2022/03/22 07:58:58;;;;;;;20.83;15.17;;;;;;;;;;5013480;28;20413;-50
2022/03/22 08:01:24;;;;;;;18.40;15.40;;;;;;;;;;5012816;28;20981;-51
2022/03/22 08:03:50;;;;;;;20.83;14.33;;;;;;;;;;4994119;28;20419;-51
2022/03/22 08:06:17;;;;;;;19.43;13.90;;;;;;;;;;5003173;28;20422;-51
2022/03/22 08:08:44;;;;;;;14.53;13.03;;;;;;;;;;5000788;28;20481;-51
2022/03/22 08:11:10;;;;;;;19.80;14.10;;;;;;;;;;4993927;28;20411;-51
2022/03/22 08:13:37;;;;;;;19.70;15.00;;;;;;;;;;5013534;28;20407;-51
2022/03/22 08:16:04;;;;;;;16.70;15.00;;;;;;;;;;5013678;28;20408;-53
2022/03/22 08:18:30;;;;;;;17.87;13.27;;;;;;;;;;5013622;28;20403;-53
2022/03/22 08:20:56;;;;;;;17.20;13.07;;;;;;;;;;5013167;28;21229;-51
2022/03/22 08:23:23;;;;;;;13.83;12.40;;;;;;;;;;5013298;28;20407;-51
2022/03/22 08:25:51;;;;;;;14.90;12.73;;;;;;;;;;4993918;28;20440;-52
2022/03/22 08:28:17;;;;;;;14.70;13.13;;;;;;;;;;4993914;28;20401;-51
2022/03/22 08:30:43;;;;;;;16.90;12.90;;;;;;;;;;4993500;28;20508;-50
2022/03/22 08:33:10;;;;;;;14.10;12.70;;;;;;;;;;4993496;28;20511;-50
2022/03/22 08:35:38;;;;;;;14.60;13.00;;;;;;;;;;4993656;28;20412;-50
2022/03/22 08:38:04;;;;;;;15.20;12.20;;;;;;;;;;4993654;28;20411;-50
2022/03/22 08:40:31;;;;;;;12.90;11.50;;;;;;;;;;4993248;28;20447;-51
2022/03/22 08:42:58;;;;;;;14.57;13.17;;;;;;;;;;4993412;28;20762;-50
2022/03/22 08:45:25;;;;;;;16.67;12.83;;;;;;;;;;4993549;28;20401;-53
2022/03/22 08:47:51;;;;;;;16.40;14.27;;;;;;;;;;4993334;28;20904;-52
2022/03/22 08:50:18;;;;;;;19.67;12.33;;;;;;;;;;4993016;28;20462;-53
2022/03/22 08:52:46;;;;;;;13.47;12.17;;;;;;;;;;4993185;28;20519;-51
2022/03/22 08:55:13;;;;;;;13.97;11.57;;;;;;;;;;4996786;28;20410;-51
2022/03/22 08:57:42;;;;;;;12.40;11.20;;;;;;;;;;5012741;28;20501;-52
2022/03/22 09:00:09;;;;;;;14.20;12.70;;;;;;;;;;5011590;28;20469;-51
2022/03/22 09:02:39;;;;;;;11.87;10.70;;;;;;;;;;5012275;28;20442;-51
2022/03/22 09:07:51;;;;;;;12.77;11.00;;;;;;;;;;5012950;28;20534;-50
2022/03/22 09:10:19;;;;;;;14.50;13.00;;;;;;;;;;5012388;28;20395;-52
2022/03/22 09:12:45;;;;;;;13.17;11.30;;;;;;;;;;5012198;28;20434;-51
2022/03/22 09:15:11;;;;;;;12.50;11.20;;;;;;;;;;5012429;28;20411;-49
2022/03/22 09:17:38;;;;;;;11.90;10.57;;;;;;;;;;5012391;28;20906;-51
2022/03/22 09:20:05;;;;;;;12.37;11.27;;;;;;;;;;5012094;28;20457;-50
2022/03/22 09:22:31;;;;;;;14.57;11.07;;;;;;;;;;5012552;28;20780;-51
2022/03/22 09:24:56;;;;;;;11.50;9.90;;;;;;;;;;5012321;28;20482;-49
2022/03/22 09:27:23;;;;;;;12.00;10.53;;;;;;;;;;5012115;28;20406;-49
2022/03/22 09:29:49;;;;;;;13.33;11.43;;;;;;;;;;5012330;28;20399;-51
2022/03/22 09:32:15;;;;;;;12.07;10.97;;;;;;;;;;5011953;28;20872;-51
2022/03/22 09:34:43;;;;;;;11.97;10.90;;;;;;;;;;5012317;28;20781;-52
2022/03/22 09:37:09;;;;;;;12.53;11.43;;;;;;;;;;5012190;28;20403;-51
2022/03/22 09:39:35;;;;;;;11.87;10.67;;;;;;;;;;5010531;28;20414;-51
2022/03/22 09:42:03;;;;;;;11.67;10.47;;;;;;;;;;5011645;28;20524;-54
2022/03/22 09:44:29;;;;;;;11.53;10.20;;;;;;;;;;5012031;28;20407;-53
2022/03/22 09:46:56;;;;;;;16.87;10.23;;;;;;;;;;5012026;28;20748;-52
2022/03/22 09:49:23;;;;;;;13.40;12.00;;;;;;;;;;5011835;28;20419;-49
2022/03/22 09:51:49;;;;;;;12.67;11.43;;;;;;;;;;5011838;28;20427;-48
2022/03/22 09:54:22;;;;;;;16.63;11.53;;;;;;;;;;5012035;28;20407;-49
2022/03/22 09:56:49;;;;;;;15.83;12.73;;;;;;;;;;5011852;28;20418;-49
2022/03/22 09:59:15;;;;;;;13.00;11.40;;;;;;;;;;5012048;28;20402;-48
2022/03/22 10:01:42;;;;;;;12.07;10.67;;;;;;;;;;4996818;28;20460;-49
2022/03/22 10:04:13;;;;;;;14.70;10.80;;;;;;;;;;4992432;28;20616;-48
2022/03/22 10:06:40;;;;;;;13.30;11.30;;;;;;;;;;4974826;28;20527;-51
2022/03/22 10:09:06;;;;;;;14.60;10.53;;;;;;;;;;4994862;28;20415;-51
2022/03/22 10:11:39;;;;;;;14.50;11.10;;;;;;;;;;5008953;28;20553;-49
2022/03/22 10:14:05;;;;;;;12.13;10.93;;;;;;;;;;5001849;28;20911;-51
2022/03/22 10:16:31;;;;;;;13.13;11.80;;;;;;;;;;5010609;28;20427;-53
2022/03/22 10:18:58;;;;;;;12.73;11.53;;;;;;;;;;5015717;28;20422;-53
2022/03/22 10:21:24;;;;;;;19.17;12.87;;;;;;;;;;5014923;28;20549;-53
2022/03/22 10:23:53;;;;;;;16.07;13.20;;;;;;;;;;5014456;28;20414;-54
2022/03/22 10:26:20;;;;;;;14.17;12.70;;;;;;;;;;5015240;28;20407;-53
2022/03/22 10:28:52;;;;;;;13.50;12.10;;;;;;;;;;5014817;28;20450;-54
2022/03/22 10:31:20;;;;;;;13.20;11.20;;;;;;;;;;5014477;28;20525;-51
2022/03/22 10:33:53;;;;;;;15.93;12.93;;;;;;;;;;5014975;28;20915;-53
2022/03/22 10:36:21;;;;;;;16.50;12.83;;;;;;;;;;5014124;28;20422;-52
2022/03/22 10:39:00;;;;;;;13.83;11.83;;;;;;;;;;5014806;28;20515;-52
2022/03/22 10:41:30;;;;;;;13.40;11.27;;;;;;;;;;5014639;28;20856;-53
2022/03/22 10:44:08;;;;;;;14.83;11.57;;;;;;;;;;5015236;28;20485;-53
2022/03/22 10:46:35;;;;;;;14.30;12.27;;;;;;;;;;5015006;28;20415;-52
2022/03/22 10:49:02;;;;;;;13.87;11.70;;;;;;;;;;5014878;28;20419;-54
2022/03/22 10:51:35;;;;;;;12.30;9.90;;;;;;;;;;5014525;28;21048;-52
2022/03/22 10:54:01;;;;;;;13.20;9.63;;;;;;;;;;5011671;28;20923;-53
2022/03/22 10:56:27;;;;;;;12.23;10.20;;;;;;;;;;5015093;28;20410;-53
2022/03/22 10:58:55;;;;;;;11.13;9.27;;;;;;;;;;5014406;28;20411;-54
2022/03/22 11:01:22;;;;;;;12.80;9.77;;;;;;;;;;5014547;28;20508;-53
2022/03/22 11:03:49;;;;;;;11.23;9.40;;;;;;;;;;5014448;28;20446;-53
2022/03/22 11:06:15;;;;;;;12.23;9.43;;;;;;;;;;5014708;28;20415;-52
2022/03/22 11:08:41;;;;;;;14.07;9.40;;;;;;;;;;5014183;28;20919;-53
2022/03/22 11:11:07;;;;;;;13.63;9.43;;;;;;;;;;5013842;28;20422;-53
2022/03/22 11:13:34;;;;;;;10.50;8.87;;;;;;;;;;5014717;28;20953;-53
2022/03/22 11:16:01;;;;;;;11.03;7.37;;;;;;;;;;5005807;28;20423;-54
2022/03/22 11:18:29;;;;;;;14.10;8.50;;;;;;;;;;5006716;28;20765;-53
2022/03/22 11:20:56;;;;;;;12.83;8.60;;;;;;;;;;5013875;28;20446;-53
2022/03/22 11:23:29;;;;;;;18.67;8.37;;;;;;;;;;5013700;28;20446;-53
2022/03/22 11:26:06;;;;;;;12.23;9.07;;;;;;;;;;5014268;28;20411;-52
2022/03/22 11:28:32;;;;;;;9.30;8.07;;;;;;;;;;5014037;28;20419;-54
2022/03/22 11:31:00;;;;;;;13.73;8.60;;;;;;;;;;5013880;28;20416;-53
2022/03/22 11:36:15;;;;;;;12.50;8.60;;;;;;;;;;5014328;28;20422;-54
2022/03/22 11:38:41;;;;;;;13.30;8.93;;;;;;;;;;5013933;28;20427;-53
2022/03/22 11:44:07;;;;;;;17.87;9.63;;;;;;;;;;5014302;28;20422;-53
2022/03/22 11:46:33;;;;;;;9.30;7.10;;;;;;;;;;5013966;28;20407;-54
2022/03/22 11:49:11;;;;;;;18.23;7.80;;;;;;;;;;5013501;28;20787;-53
2022/03/22 11:51:47;;;;;;;13.27;8.13;;;;;;;;;;5013957;28;20506;-54
2022/03/22 11:54:13;;;;;;;15.10;8.53;;;;;;;;;;5013706;28;20419;-53
2022/03/22 11:56:46;;;;;;;9.17;7.70;;;;;;;;;;5014009;28;20409;-53
2022/03/22 11:59:15;;;;;;;7.87;7.00;;;;;;;;;;5013484;28;20407;-52
2022/03/22 12:01:41;;;;;;;13.23;8.53;;;;;;;;;;5013578;28;20474;-51
2022/03/22 12:04:17;;;;;;;10.63;8.70;;;;;;;;;;5013436;28;20411;-52
2022/03/22 12:06:44;;;;;;;11.40;7.67;;;;;;;;;;5013667;28;20465;-54
2022/03/22 12:09:10;;;;;;;11.97;8.57;;;;;;;;;;5013283;28;20419;-53
2022/03/22 12:11:37;;;;;;;16.20;9.73;;;;;;;;;;5013247;28;20439;-54
2022/03/22 12:14:04;;;;;;;11.87;8.73;;;;;;;;;;5013140;28;20423;-53
2022/03/22 12:16:30;;;;;;;14.00;7.47;;;;;;;;;;5013308;28;20423;-53
2022/03/22 12:18:59;;;;;;;12.80;7.50;;;;;;;;;;5013479;28;20426;-53
2022/03/22 12:21:26;;;;;;;9.93;7.70;;;;;;;;;;5013032;28;20462;-52
2022/03/22 12:23:54;;;;;;;9.77;7.37;;;;;;;;;;5013346;28;20465;-53
2022/03/22 12:26:20;;;;;;;8.63;6.67;;;;;;;;;;5013266;28;20452;-54
2022/03/22 12:28:50;;;;;;;10.10;7.27;;;;;;;;;;5012754;28;20419;-54
2022/03/22 12:31:21;;;;;;;15.77;6.27;;;;;;;;;;5012937;28;20939;-51
2022/03/22 12:33:50;;;;;;;9.27;5.70;;;;;;;;;;5012802;28;20430;-53
2022/03/22 12:36:16;;;;;;;12.73;6.10;;;;;;;;;;5013331;28;20419;-52
2022/03/22 12:38:42;;;;;;;7.43;6.20;;;;;;;;;;5014160;28;20790;-53
2022/03/22 12:41:09;;;;;;;8.30;6.30;;;;;;;;;;5012827;28;20458;-53
2022/03/22 12:43:35;;;;;;;10.77;7.37;;;;;;;;;;5012974;28;20403;-53
2022/03/22 12:46:02;;;;;;;10.70;7.20;;;;;;;;;;5012845;28;20423;-51
2022/03/22 12:48:30;;;;;;;8.80;6.63;;;;;;;;;;5012836;28;20426;-53
2022/03/22 12:50:56;;;;;;;13.23;7.30;;;;;;;;;;5012249;28;20433;-54
2022/03/22 12:53:22;;;;;;;14.30;7.57;;;;;;;;;;5012924;28;20403;-54
2022/03/22 12:55:48;;;;;;;11.03;7.30;;;;;;;;;;5012536;28;20911;-53
2022/03/22 12:58:14;;;;;;;15.87;7.17;;;;;;;;;;5012789;28;20407;-54
2022/03/22 13:00:41;;;;;;;8.23;7.30;;;;;;;;;;5010703;28;20541;-51
2022/03/22 13:03:12;;;;;;;12.73;7.47;;;;;;;;;;5012258;28;20799;-50
2022/03/22 13:05:41;;;;;;;14.20;7.13;;;;;;;;;;5003425;28;20977;-53
2022/03/22 13:08:20;;;;;;;9.33;7.67;;;;;;;;;;5007174;28;20408;-50
2022/03/22 13:16:20;;;;;;;8.30;7.10;;;;;;;;;;5013068;28;20449;-50
2022/03/22 13:18:50;;;;;;;7.90;6.37;;;;;;;;;;5011992;28;20419;-51
2022/03/22 13:21:21;;;;;;;12.00;7.20;;;;;;;;;;5012279;28;20463;-50
2022/03/22 13:23:47;;;;;;;11.27;5.90;;;;;;;;;;5012345;28;20494;-50
2022/03/22 13:26:16;;;;;;;7.80;5.43;;;;;;;;;;5012410;28;20494;-52
2022/03/22 13:28:42;;;;;;;14.27;6.03;;;;;;;;;;5012223;28;20782;-50
2022/03/22 13:31:08;;;;;;;12.23;6.73;;;;;;;;;;5012075;28;20876;-50
2022/03/22 13:33:35;;;;;;;7.07;5.67;;;;;;;;;;5012099;28;20411;-51
2022/03/22 13:36:03;;;;;;;15.87;7.50;;;;;;;;;;5012288;28;20403;-50
2022/03/22 13:38:30;;;;;;;12.60;7.80;;;;;;;;;;5011034;28;20423;-51
2022/03/22 13:41:03;;;;;;;10.13;7.20;;;;;;;;;;5011787;28;20450;-52
2022/03/22 13:43:30;;;;;;;11.83;8.17;;;;;;;;;;5011937;28;20419;-50
2022/03/22 13:45:58;;;;;;;10.63;7.40;;;;;;;;;;5011871;28;20814;-50
2022/03/22 13:48:24;;;;;;;14.80;8.77;;;;;;;;;;5012112;28;20416;-50
2022/03/22 13:50:52;;;;;;;10.10;8.07;;;;;;;;;;5011745;28;20414;-50
2022/03/22 13:53:19;;;;;;;10.20;7.67;;;;;;;;;;5011814;28;20923;-51
2022/03/22 13:55:51;;;;;;;10.97;8.60;;;;;;;;;;5011892;28;20418;-52
2022/03/22 13:58:18;;;;;;;12.43;7.80;;;;;;;;;;5011966;28;20429;-51
2022/03/22 14:00:46;;;;;;;8.30;7.00;;;;;;;;;;5011523;28;20857;-53
2022/03/22 14:03:13;;;;;;;12.37;7.90;;;;;;;;;;5011690;28;20466;-49
2022/03/22 14:05:39;;;;;;;10.77;7.23;;;;;;;;;;5011528;28;20430;-50
2022/03/22 14:08:06;;;;;;;10.83;8.70;;;;;;;;;;5011841;28;20407;-49
2022/03/22 14:10:32;;;;;;;12.30;9.80;;;;;;;;;;5011551;28;20465;-49
2022/03/22 14:12:59;;;;;;;12.53;9.00;;;;;;;;;;5011465;28;20443;-49
2022/03/22 14:15:25;;;;;;;14.63;9.00;;;;;;;;;;5011682;28;20423;-48
2022/03/22 14:17:51;;;;;;;12.07;9.10;;;;;;;;;;5011965;28;20409;-51
2022/03/22 14:20:18;;;;;;;11.50;9.37;;;;;;;;;;5011356;28;20498;-53
2022/03/22 14:22:48;;;;;;;13.40;9.60;;;;;;;;;;5011767;28;20557;-49
2022/03/22 14:25:15;;;;;;;13.07;9.77;;;;;;;;;;5011760;28;20878;-49
2022/03/22 14:27:42;;;;;;;16.07;10.60;;;;;;;;;;5011828;28;20782;-48
2022/03/22 14:30:14;;;;;;;10.80;9.80;;;;;;;;;;5011369;28;20767;-49
2022/03/22 14:32:40;;;;;;;11.73;10.50;;;;;;;;;;5011460;28;20435;-49
2022/03/22 14:37:51;;;;;;;12.50;10.50;;;;;;;;;;5011811;28;20437;-51
2022/03/22 14:40:17;;;;;;;11.97;8.83;;;;;;;;;;5011325;28;20415;-52
2022/03/22 14:42:44;;;;;;;11.47;9.93;;;;;;;;;;5011455;28;20439;-51
2022/03/22 14:45:13;;;;;;;13.43;10.10;;;;;;;;;;5011621;28;20407;-49
2022/03/22 14:47:39;;;;;;;18.30;10.33;;;;;;;;;;5011532;28;20418;-49
2022/03/22 14:50:06;;;;;;;12.40;10.20;;;;;;;;;;5011471;28;20411;-49
2022/03/22 14:55:18;;;;;;;13.37;10.57;;;;;;;;;;5011672;28;20444;-49
2022/03/22 15:00:29;;;;;;;23.67;10.70;;;;;;;;;;5015256;28;20446;-48
2022/03/22 15:02:56;;;;;;;13.00;9.10;;;;;;;;;;5014758;28;20471;-49
2022/03/22 15:05:31;;;;;;;17.77;10.63;;;;;;;;;;5015243;28;20407;-49
2022/03/22 15:07:57;;;;;;;12.30;9.90;;;;;;;;;;5014750;28;20498;-49
2022/03/22 15:10:23;;;;;;;11.10;10.00;;;;;;;;;;5014872;28;20399;-49
2022/03/22 15:12:50;;;;;;;14.83;9.43;;;;;;;;;;5012414;28;20469;-53